Terminal Aerodrome Forecast
Issued by NWS Flagstaff, AZ

Home | Current Version | Previous Version | Text Only | Print | Product List | Glossary On
Versions: 1 2 3 4 5 6 7 8 9 10 11 12 13 14 15 16
677
FTUS45 KFGZ 211720
TAFINW
TAF
KINW 211720Z 2118/2218 18010G20KT P6SM SCT200
     FM212000 20020G30KT P6SM BKN200
     FM220300 21015KT P6SM BKN200
     FM220500 VRB06KT P6SM SCT150=

USA.gov is the U.S. government's official web portal to all federal, state and local government web resources and services.